Time;durP1;ratioP1;P1;durP2;ratioP2;P2;SDS_P1;SDS_P2;PMS_P1;PMS_P2;Temp;Humidity;BMP_temperature;BMP_pressure;BME280_temperature;BME280_humidity;BME280_pressure;Samples;Min_cycle;Max_cycle;Signal;HPM_P1;HPM_P2
2024/01/11 00:01:16;;;;;;;45.53;19.67;;;;;;;;;;5037476;28;20188;-85
2024/01/11 00:04:20;;;;;;;51.83;20.05;;;;;;;;;;5039982;28;20239;-85
2024/01/11 00:07:25;;;;;;;41.03;19.38;;;;;;;;;;5029011;28;20191;-85
2024/01/11 00:10:29;;;;;;;47.17;20.15;;;;;;;;;;5039803;28;20188;-85
2024/01/11 00:13:33;;;;;;;42.83;19.88;;;;;;;;;;5039142;28;20200;-85
2024/01/11 00:16:37;;;;;;;45.30;20.35;;;;;;;;;;5040244;28;20192;-85
2024/01/11 00:19:41;;;;;;;47.22;19.98;;;;;;;;;;5039325;28;20223;-85
2024/01/11 00:22:45;;;;;;;47.38;20.10;;;;;;;;;;5039560;28;20195;-85
2024/01/11 00:25:49;;;;;;;42.45;19.42;;;;;;;;;;5039092;28;20223;-85
2024/01/11 00:28:54;;;;;;;45.88;20.73;;;;;;;;;;5028712;28;20546;-85
2024/01/11 00:31:58;;;;;;;45.65;18.65;;;;;;;;;;5027841;28;20589;-85
2024/01/11 00:35:02;;;;;;;42.42;18.58;;;;;;;;;;5039901;28;20231;-85
2024/01/11 00:38:06;;;;;;;44.30;19.67;;;;;;;;;;5016758;28;20223;-85
2024/01/11 00:41:13;;;;;;;45.00;19.10;;;;;;;;;;5039849;28;20672;-85
2024/01/11 00:44:18;;;;;;;43.40;18.65;;;;;;;;;;5039910;28;20236;-85
2024/01/11 00:47:23;;;;;;;43.53;19.70;;;;;;;;;;5039655;28;20192;-85
2024/01/11 00:50:28;;;;;;;48.50;19.20;;;;;;;;;;5028628;28;20196;-85
2024/01/11 00:53:33;;;;;;;41.00;18.88;;;;;;;;;;5018770;28;20195;-85
2024/01/11 00:56:37;;;;;;;45.45;19.67;;;;;;;;;;5029550;28;20192;-85
2024/01/11 00:59:42;;;;;;;54.80;19.35;;;;;;;;;;5029519;28;20220;-85
2024/01/11 01:02:45;;;;;;;46.78;20.67;;;;;;;;;;5041335;28;20183;-85
2024/01/11 01:05:50;;;;;;;48.17;20.50;;;;;;;;;;5029048;28;20219;-85
2024/01/11 01:08:55;;;;;;;45.28;19.20;;;;;;;;;;5041052;28;20676;-85
2024/01/11 01:11:59;;;;;;;49.25;20.20;;;;;;;;;;5040211;28;20192;-85
2024/01/11 01:15:04;;;;;;;46.65;20.33;;;;;;;;;;5038208;28;20720;-85
2024/01/11 01:18:08;;;;;;;45.85;19.08;;;;;;;;;;5039335;28;20185;-85
2024/01/11 01:21:12;;;;;;;40.42;17.92;;;;;;;;;;5040912;28;20191;-84
2024/01/11 01:24:16;;;;;;;43.45;19.70;;;;;;;;;;5028817;28;20231;-85
2024/01/11 01:27:21;;;;;;;44.45;18.58;;;;;;;;;;5028163;28;20256;-85
2024/01/11 01:30:25;;;;;;;50.00;20.33;;;;;;;;;;5039742;28;20653;-85
2024/01/11 01:33:29;;;;;;;46.25;19.50;;;;;;;;;;5039543;28;20195;-85
2024/01/11 01:36:33;;;;;;;42.22;19.33;;;;;;;;;;5027596;28;20196;-85
2024/01/11 01:39:38;;;;;;;44.92;18.48;;;;;;;;;;5039427;28;20570;-85
2024/01/11 01:42:44;;;;;;;41.88;18.98;;;;;;;;;;5039260;28;20192;-85
2024/01/11 01:45:48;;;;;;;47.67;20.17;;;;;;;;;;5039569;28;20389;-85
2024/01/11 01:48:54;;;;;;;49.42;20.50;;;;;;;;;;5016576;28;20192;-85
2024/01/11 01:51:58;;;;;;;45.88;19.95;;;;;;;;;;5039753;28;20200;-85
2024/01/11 01:55:05;;;;;;;39.35;19.05;;;;;;;;;;5027647;28;20231;-85
2024/01/11 01:58:09;;;;;;;46.28;19.55;;;;;;;;;;5039440;28;20199;-85
2024/01/11 02:01:14;;;;;;;42.63;19.95;;;;;;;;;;5027525;28;20196;-85
2024/01/11 02:04:19;;;;;;;48.88;22.50;;;;;;;;;;5038325;28;20235;-85
2024/01/11 02:07:24;;;;;;;51.53;23.52;;;;;;;;;;5039066;28;20196;-85
2024/01/11 02:10:32;;;;;;;46.63;20.33;;;;;;;;;;5028420;28;20192;-85
2024/01/11 02:13:37;;;;;;;45.58;19.42;;;;;;;;;;5028091;28;20546;-85
2024/01/11 02:16:41;;;;;;;47.05;19.35;;;;;;;;;;5016654;28;20200;-85
2024/01/11 02:19:46;;;;;;;44.78;19.92;;;;;;;;;;5039235;28;20220;-85
2024/01/11 02:22:58;;;;;;;41.30;18.40;;;;;;;;;;5027613;28;20204;-85
2024/01/11 02:26:02;;;;;;;45.45;19.10;;;;;;;;;;5043154;28;20192;-85
2024/01/11 02:29:07;;;;;;;45.53;19.80;;;;;;;;;;5044082;28;20181;-85
2024/01/11 02:32:11;;;;;;;41.88;20.05;;;;;;;;;;5031608;28;20191;-86
2024/01/11 02:35:16;;;;;;;43.65;18.63;;;;;;;;;;5030316;28;20231;-86
2024/01/11 02:38:21;;;;;;;38.13;17.67;;;;;;;;;;5040636;28;20200;-86
2024/01/11 02:41:27;;;;;;;39.38;18.35;;;;;;;;;;5040365;28;20191;-86
2024/01/11 02:44:32;;;;;;;42.53;18.85;;;;;;;;;;5027714;28;20227;-85
2024/01/11 02:47:36;;;;;;;43.03;18.45;;;;;;;;;;5039234;28;20196;-85
2024/01/11 02:50:40;;;;;;;45.20;18.58;;;;;;;;;;5016526;28;20192;-85
2024/01/11 02:53:44;;;;;;;46.55;19.98;;;;;;;;;;5039028;28;20196;-85
2024/01/11 02:56:48;;;;;;;38.83;17.40;;;;;;;;;;5039937;28;20199;-85
2024/01/11 02:59:53;;;;;;;38.63;17.77;;;;;;;;;;5038595;28;20211;-85
2024/01/11 03:02:57;;;;;;;45.13;19.27;;;;;;;;;;5039302;28;20188;-85
2024/01/11 03:06:01;;;;;;;45.08;17.83;;;;;;;;;;5038213;28;20200;-85
2024/01/11 03:09:05;;;;;;;43.40;19.13;;;;;;;;;;5038563;28;20184;-85
2024/01/11 03:12:09;;;;;;;39.60;17.75;;;;;;;;;;5027011;28;20660;-85
2024/01/11 03:15:15;;;;;;;40.22;18.50;;;;;;;;;;5037583;28;20720;-85
2024/01/11 03:18:19;;;;;;;36.30;17.02;;;;;;;;;;5026011;28;20188;-85
2024/01/11 03:21:24;;;;;;;37.03;19.17;;;;;;;;;;5026685;28;20180;-85
2024/01/11 03:24:28;;;;;;;43.05;20.17;;;;;;;;;;5026566;28;20223;-85
2024/01/11 03:27:31;;;;;;;36.15;16.63;;;;;;;;;;5026825;28;20546;-85
2024/01/11 03:30:35;;;;;;;36.53;18.33;;;;;;;;;;5014683;28;20184;-85
2024/01/11 03:33:40;;;;;;;38.80;18.02;;;;;;;;;;5014638;28;20196;-85
2024/01/11 03:36:44;;;;;;;36.95;18.10;;;;;;;;;;5037349;28;20668;-85
2024/01/11 03:39:50;;;;;;;36.15;17.98;;;;;;;;;;5042268;28;20380;-85
2024/01/11 03:42:54;;;;;;;40.65;17.90;;;;;;;;;;5029372;28;20196;-84
2024/01/11 03:45:58;;;;;;;32.97;16.63;;;;;;;;;;5029760;28;20191;-85
2024/01/11 03:49:02;;;;;;;39.47;17.55;;;;;;;;;;5018172;28;20188;-85
2024/01/11 03:52:07;;;;;;;42.22;16.45;;;;;;;;;;5029954;28;20187;-86
2024/01/11 03:55:11;;;;;;;36.10;17.35;;;;;;;;;;5040709;28;20593;-84
2024/01/11 03:58:15;;;;;;;39.20;17.88;;;;;;;;;;5041011;28;20198;-85
2024/01/11 04:01:19;;;;;;;38.30;18.02;;;;;;;;;;5040592;28;20180;-85
2024/01/11 04:04:23;;;;;;;39.05;17.80;;;;;;;;;;5040384;28;20235;-86
2024/01/11 04:07:27;;;;;;;39.10;17.70;;;;;;;;;;5027579;28;20192;-86
2024/01/11 04:10:31;;;;;;;36.80;19.17;;;;;;;;;;5027798;28;20184;-86
2024/01/11 04:13:35;;;;;;;38.30;18.05;;;;;;;;;;5038490;28;20188;-86
2024/01/11 04:16:41;;;;;;;38.13;18.33;;;;;;;;;;5017461;28;20192;-86
2024/01/11 04:19:46;;;;;;;37.45;18.00;;;;;;;;;;5039367;28;20223;-86
2024/01/11 04:22:52;;;;;;;40.85;18.52;;;;;;;;;;5027859;28;20192;-86
2024/01/11 04:25:57;;;;;;;35.03;17.83;;;;;;;;;;5027474;28;20236;-85
2024/01/11 04:29:01;;;;;;;38.60;17.75;;;;;;;;;;5027870;28;20641;-86
2024/01/11 04:32:05;;;;;;;36.40;17.67;;;;;;;;;;5027657;28;20212;-85
2024/01/11 04:35:10;;;;;;;36.05;17.30;;;;;;;;;;5037481;28;20243;-85
2024/01/11 04:38:14;;;;;;;40.83;17.73;;;;;;;;;;5037956;28;20243;-85
2024/01/11 04:41:18;;;;;;;34.15;17.35;;;;;;;;;;5038422;28;20187;-86
2024/01/11 04:44:22;;;;;;;35.13;16.20;;;;;;;;;;5026498;28;20227;-86
2024/01/11 04:47:26;;;;;;;33.30;17.15;;;;;;;;;;5038198;28;20195;-86
2024/01/11 04:50:30;;;;;;;44.42;18.48;;;;;;;;;;5038390;28;20188;-86
2024/01/11 04:53:39;;;;;;;32.95;17.15;;;;;;;;;;5014967;28;20192;-86
2024/01/11 04:56:43;;;;;;;36.33;17.45;;;;;;;;;;5037968;28;20196;-85
2024/01/11 04:59:49;;;;;;;39.42;17.55;;;;;;;;;;5039016;28;20220;-86
2024/01/11 05:02:53;;;;;;;33.80;17.30;;;;;;;;;;5026844;28;20188;-86
2024/01/11 05:05:57;;;;;;;36.42;16.85;;;;;;;;;;5025732;28;20223;-86
2024/01/11 05:09:02;;;;;;;40.28;17.83;;;;;;;;;;5027179;28;20196;-86
2024/01/11 05:12:06;;;;;;;38.95;16.70;;;;;;;;;;5038017;28;20226;-86
2024/01/11 05:15:11;;;;;;;39.35;18.40;;;;;;;;;;5026021;28;20231;-86
2024/01/11 05:18:16;;;;;;;36.63;17.27;;;;;;;;;;5037774;28;20200;-86
2024/01/11 05:21:21;;;;;;;43.67;18.17;;;;;;;;;;5025988;28;20215;-86
2024/01/11 05:24:24;;;;;;;38.05;17.45;;;;;;;;;;5025642;28;20235;-86
2024/01/11 05:27:28;;;;;;;36.10;17.10;;;;;;;;;;5026273;28;20196;-86
2024/01/11 05:30:33;;;;;;;39.03;16.95;;;;;;;;;;5036544;28;20184;-86
2024/01/11 05:33:40;;;;;;;36.25;17.05;;;;;;;;;;5025838;28;20192;-86
2024/01/11 05:36:45;;;;;;;38.13;17.65;;;;;;;;;;5038227;28;20189;-86
2024/01/11 05:39:50;;;;;;;40.75;18.40;;;;;;;;;;5042736;28;20223;-86
2024/01/11 05:42:54;;;;;;;39.72;17.95;;;;;;;;;;5048426;28;20187;-87
2024/01/11 05:45:58;;;;;;;36.35;17.05;;;;;;;;;;5032110;28;20216;-86
2024/01/11 05:49:03;;;;;;;34.05;17.10;;;;;;;;;;5019629;28;20192;-87
2024/01/11 05:52:10;;;;;;;33.72;16.55;;;;;;;;;;5029868;28;20188;-86
2024/01/11 05:55:14;;;;;;;38.00;19.00;;;;;;;;;;5040822;28;20231;-86
2024/01/11 05:58:19;;;;;;;57.75;24.45;;;;;;;;;;5028503;28;20192;-86
2024/01/11 06:01:24;;;;;;;59.78;27.48;;;;;;;;;;5039347;28;20216;-88
2024/01/11 06:04:28;;;;;;;54.42;23.58;;;;;;;;;;5037183;28;20231;-85
2024/01/11 06:07:32;;;;;;;47.25;22.30;;;;;;;;;;5037711;28;20192;-85
2024/01/11 06:10:37;;;;;;;38.33;18.55;;;;;;;;;;5036569;28;20192;-86
2024/01/11 06:13:41;;;;;;;37.13;17.80;;;;;;;;;;5038074;28;20192;-85
2024/01/11 06:16:45;;;;;;;33.97;16.25;;;;;;;;;;5025571;28;20192;-85
2024/01/11 06:19:50;;;;;;;35.20;17.67;;;;;;;;;;5037741;28;20228;-85
2024/01/11 06:22:54;;;;;;;30.60;16.10;;;;;;;;;;5026002;28;20192;-86
2024/01/11 06:25:58;;;;;;;39.90;18.05;;;;;;;;;;5025104;28;20220;-85
2024/01/11 06:29:02;;;;;;;32.30;16.08;;;;;;;;;;5024846;28;20183;-85
2024/01/11 06:32:07;;;;;;;38.67;16.98;;;;;;;;;;5036374;28;20191;-86
2024/01/11 06:35:12;;;;;;;33.92;17.33;;;;;;;;;;5036637;28;20597;-85
2024/01/11 06:38:16;;;;;;;24.27;11.68;;;;;;;;;;5013287;28;20192;-85
2024/01/11 06:41:21;;;;;;;48.45;20.48;;;;;;;;;;5036227;28;20219;-86
2024/01/11 06:44:25;;;;;;;38.45;19.17;;;;;;;;;;5035387;28;20223;-85
2024/01/11 06:47:29;;;;;;;33.38;16.98;;;;;;;;;;5023639;28;20192;-85
2024/01/11 06:50:33;;;;;;;39.15;18.58;;;;;;;;;;5023478;28;20184;-85
2024/01/11 06:53:38;;;;;;;36.75;18.40;;;;;;;;;;5023862;28;20191;-85
2024/01/11 06:56:42;;;;;;;38.75;18.92;;;;;;;;;;5034992;28;20660;-86
2024/01/11 06:59:46;;;;;;;36.72;18.75;;;;;;;;;;5034933;28;20548;-85
2024/01/11 07:02:51;;;;;;;37.50;19.08;;;;;;;;;;4986999;28;20578;-85
2024/01/11 07:05:55;;;;;;;39.53;19.25;;;;;;;;;;5019426;28;20235;-85
2024/01/11 07:09:00;;;;;;;49.90;24.63;;;;;;;;;;5034555;28;20191;-85
2024/01/11 07:12:05;;;;;;;42.83;20.25;;;;;;;;;;5023252;28;20184;-85
2024/01/11 07:15:10;;;;;;;41.88;17.98;;;;;;;;;;5034295;28;20231;-84
2024/01/11 07:18:15;;;;;;;33.97;17.02;;;;;;;;;;5035432;28;20192;-85
2024/01/11 07:21:29;;;;;;;35.20;17.38;;;;;;;;;;5046111;28;20700;-85
2024/01/11 07:24:37;;;;;;;33.72;16.95;;;;;;;;;;5023225;28;20223;-84
2024/01/11 07:27:41;;;;;;;35.70;16.55;;;;;;;;;;5034270;28;20191;-84
2024/01/11 07:30:46;;;;;;;39.88;18.25;;;;;;;;;;5034617;28;20192;-85
2024/01/11 07:33:50;;;;;;;45.17;21.10;;;;;;;;;;5034983;28;20219;-84
2024/01/11 07:36:54;;;;;;;38.97;19.67;;;;;;;;;;5034697;28;20549;-86
2024/01/11 07:39:58;;;;;;;42.95;20.27;;;;;;;;;;5034722;28;20199;-86
2024/01/11 07:43:04;;;;;;;38.60;17.88;;;;;;;;;;5035968;28;20652;-86
2024/01/11 07:46:08;;;;;;;46.85;22.35;;;;;;;;;;5023444;28;20189;-85
2024/01/11 07:49:12;;;;;;;42.92;20.85;;;;;;;;;;5035101;28;20260;-86
2024/01/11 07:52:16;;;;;;;46.75;23.23;;;;;;;;;;5035905;28;20192;-87
2024/01/11 07:55:23;;;;;;;45.58;21.45;;;;;;;;;;5036010;28;20223;-87
2024/01/11 07:58:27;;;;;;;41.00;19.85;;;;;;;;;;5034695;28;20192;-87
2024/01/11 08:01:34;;;;;;;49.65;21.10;;;;;;;;;;5034909;28;20224;-87
2024/01/11 08:04:38;;;;;;;42.47;20.15;;;;;;;;;;5034207;28;20593;-88
2024/01/11 08:07:42;;;;;;;61.65;27.02;;;;;;;;;;5019518;28;20216;-88
2024/01/11 08:10:46;;;;;;;50.88;24.20;;;;;;;;;;5015068;28;20193;-86
2024/01/11 08:13:53;;;;;;;48.55;22.63;;;;;;;;;;5003192;28;20240;-87
2024/01/11 08:16:58;;;;;;;48.47;22.20;;;;;;;;;;5003238;28;20200;-85
2024/01/11 08:20:04;;;;;;;45.28;21.88;;;;;;;;;;5014670;28;20213;-86
2024/01/11 08:23:08;;;;;;;48.22;20.83;;;;;;;;;;5015097;28;20196;-86
2024/01/11 08:26:13;;;;;;;43.17;20.23;;;;;;;;;;5019132;28;20196;-86
2024/01/11 08:29:22;;;;;;;45.80;21.00;;;;;;;;;;5007181;28;20197;-86
2024/01/11 08:32:26;;;;;;;45.30;21.80;;;;;;;;;;5006638;28;20184;-86
2024/01/11 08:35:32;;;;;;;38.97;19.83;;;;;;;;;;5017668;28;20724;-86
2024/01/11 08:38:36;;;;;;;35.23;19.20;;;;;;;;;;5017523;28;20196;-86
2024/01/11 08:41:40;;;;;;;39.17;19.70;;;;;;;;;;5017624;28;21128;-86
2024/01/11 08:44:45;;;;;;;42.30;21.13;;;;;;;;;;5017566;28;20631;-86
2024/01/11 08:47:49;;;;;;;41.67;20.93;;;;;;;;;;5017777;28;20551;-86
2024/01/11 08:50:53;;;;;;;38.15;20.63;;;;;;;;;;5027016;28;20555;-87
2024/01/11 08:53:58;;;;;;;43.53;20.87;;;;;;;;;;5014447;28;20232;-86
2024/01/11 08:57:03;;;;;;;37.77;20.80;;;;;;;;;;5019535;28;20552;-86
2024/01/11 09:00:08;;;;;;;43.63;21.33;;;;;;;;;;5009430;28;20543;-86
2024/01/11 09:03:13;;;;;;;39.63;21.00;;;;;;;;;;5009887;28;21108;-86
2024/01/11 09:06:17;;;;;;;73.23;29.57;;;;;;;;;;5032102;28;20547;-87
2024/01/11 09:09:21;;;;;;;43.70;21.87;;;;;;;;;;5009157;28;20893;-86
2024/01/11 09:12:25;;;;;;;47.77;23.00;;;;;;;;;;5018954;28;20544;-86
2024/01/11 09:15:30;;;;;;;51.50;22.03;;;;;;;;;;5007430;28;20622;-86
2024/01/11 09:18:33;;;;;;;44.13;21.30;;;;;;;;;;5007325;28;20541;-86
2024/01/11 09:21:37;;;;;;;42.83;23.30;;;;;;;;;;4994459;28;20603;-87
2024/01/11 09:24:42;;;;;;;48.73;23.10;;;;;;;;;;5005401;28;20615;-87
2024/01/11 09:27:46;;;;;;;42.53;22.33;;;;;;;;;;5004771;28;20547;-87
2024/01/11 09:30:50;;;;;;;43.50;22.57;;;;;;;;;;5027016;28;21120;-87
2024/01/11 09:33:57;;;;;;;45.57;24.10;;;;;;;;;;5015474;28;20650;-87
2024/01/11 09:37:01;;;;;;;46.87;23.73;;;;;;;;;;5015973;28;20549;-87
2024/01/11 09:40:10;;;;;;;42.57;22.00;;;;;;;;;;5016374;28;21091;-86
2024/01/11 09:43:14;;;;;;;45.67;24.30;;;;;;;;;;5015866;28;20533;-87
2024/01/11 09:46:18;;;;;;;149.20;28.17;;;;;;;;;;5016039;28;20544;-87
2024/01/11 09:49:23;;;;;;;55.13;23.87;;;;;;;;;;5015540;28;20560;-87
2024/01/11 09:52:28;;;;;;;46.57;23.80;;;;;;;;;;5004490;28;20548;-87
2024/01/11 09:55:32;;;;;;;48.13;24.37;;;;;;;;;;5016485;28;21001;-86
2024/01/11 09:58:37;;;;;;;46.93;23.53;;;;;;;;;;5015600;28;20544;-87
2024/01/11 10:01:42;;;;;;;54.30;24.93;;;;;;;;;;4992926;28;20595;-87
2024/01/11 10:04:46;;;;;;;52.97;27.80;;;;;;;;;;5016388;28;20630;-88
2024/01/11 10:07:50;;;;;;;51.80;27.00;;;;;;;;;;4993263;28;20548;-87
2024/01/11 10:10:55;;;;;;;89.93;46.07;;;;;;;;;;5004376;28;21108;-87
2024/01/11 10:14:00;;;;;;;1494.33;183.80;;;;;;;;;;5015741;28;20623;-87
2024/01/11 10:17:06;;;;;;;1299.93;155.70;;;;;;;;;;5016206;28;20612;-88
2024/01/11 10:20:13;;;;;;;662.70;82.40;;;;;;;;;;5015727;28;20548;-88
2024/01/11 10:23:17;;;;;;;880.90;103.90;;;;;;;;;;5015325;28;20533;-87
2024/01/11 10:26:22;;;;;;;1600.30;202.80;;;;;;;;;;5015192;28;20556;-87
2024/01/11 10:29:38;;;;;;;1196.17;152.33;;;;;;;;;;5015629;28;20556;-88
2024/01/11 10:32:47;;;;;;;1211.20;160.27;;;;;;;;;;5014918;28;21188;-88
2024/01/11 10:35:51;;;;;;;657.63;84.23;;;;;;;;;;5014475;28;20655;-88
2024/01/11 10:38:56;;;;;;;362.97;51.93;;;;;;;;;;5015455;28;20544;-88
2024/01/11 10:42:06;;;;;;;1999.90;333.53;;;;;;;;;;4992413;28;20603;-88
2024/01/11 10:45:18;;;;;;;897.20;105.80;;;;;;;;;;5016323;28;20619;-86
2024/01/11 10:48:24;;;;;;;1077.43;129.90;;;;;;;;;;5015392;28;20607;-86
2024/01/11 10:51:31;;;;;;;595.80;84.93;;;;;;;;;;5014816;28;20544;-85
2024/01/11 10:54:37;;;;;;;776.53;97.60;;;;;;;;;;5015378;28;21195;-85
2024/01/11 10:57:41;;;;;;;116.17;44.00;;;;;;;;;;5003985;28;20552;-86
2024/01/11 11:00:46;;;;;;;342.37;52.43;;;;;;;;;;5004177;28;20548;-85
2024/01/11 11:03:54;;;;;;;155.37;34.80;;;;;;;;;;5016490;28;20556;-86
2024/01/11 11:07:01;;;;;;;141.43;34.77;;;;;;;;;;5002773;28;20548;-87
2024/01/11 11:10:08;;;;;;;145.87;57.13;;;;;;;;;;5014599;28;20552;-86
2024/01/11 11:13:17;;;;;;;151.70;39.13;;;;;;;;;;5003119;28;20556;-86
2024/01/11 11:16:21;;;;;;;73.70;29.23;;;;;;;;;;5020651;28;86731;-86
2024/01/11 11:19:27;;;;;;;98.57;31.07;;;;;;;;;;5030168;28;22364;-87
2024/01/11 11:22:34;;;;;;;67.03;26.97;;;;;;;;;;5010908;28;83971;-87
2024/01/11 11:25:42;;;;;;;77.17;27.77;;;;;;;;;;5033315;28;20658;-87
2024/01/11 11:28:49;;;;;;;95.40;28.17;;;;;;;;;;5023045;28;20540;-86
2024/01/11 11:31:53;;;;;;;54.07;28.33;;;;;;;;;;5022299;28;20532;-86
2024/01/11 11:34:58;;;;;;;66.00;29.00;;;;;;;;;;5033149;28;20642;-86
2024/01/11 11:38:02;;;;;;;75.67;28.97;;;;;;;;;;5022225;28;21056;-87
2024/01/11 11:41:07;;;;;;;55.07;26.23;;;;;;;;;;5022016;28;20540;-87
2024/01/11 11:44:14;;;;;;;67.30;26.87;;;;;;;;;;5034144;28;20623;-87
2024/01/11 11:47:23;;;;;;;49.67;26.60;;;;;;;;;;5010551;28;20560;-86
2024/01/11 11:50:29;;;;;;;54.20;26.20;;;;;;;;;;5022488;28;20544;-88
2024/01/11 11:53:34;;;;;;;53.63;26.20;;;;;;;;;;5022328;28;20532;-88
2024/01/11 11:56:40;;;;;;;65.67;31.30;;;;;;;;;;5022190;28;20902;-88
2024/01/11 11:59:44;;;;;;;58.97;29.23;;;;;;;;;;5035635;28;20544;-86
2024/01/11 12:02:51;;;;;;;50.67;26.40;;;;;;;;;;5027627;28;20595;-87
2024/01/11 12:05:55;;;;;;;47.50;24.93;;;;;;;;;;5042084;28;20977;-87
2024/01/11 12:08:59;;;;;;;49.50;25.37;;;;;;;;;;5016317;28;21060;-88
2024/01/11 12:12:04;;;;;;;46.93;24.90;;;;;;;;;;5026864;28;20548;-87
2024/01/11 12:15:08;;;;;;;45.43;26.23;;;;;;;;;;5015513;28;20619;-88
2024/01/11 12:18:12;;;;;;;44.53;23.97;;;;;;;;;;5015094;28;20540;-88
2024/01/11 12:21:16;;;;;;;49.93;25.70;;;;;;;;;;5026046;28;20558;-88
2024/01/11 12:24:22;;;;;;;49.87;26.30;;;;;;;;;;5014569;28;20619;-88
2024/01/11 12:27:26;;;;;;;43.83;25.30;;;;;;;;;;5038297;28;20910;-88
2024/01/11 12:30:31;;;;;;;50.90;26.63;;;;;;;;;;5026176;28;20540;-88
2024/01/11 12:33:35;;;;;;;45.90;26.90;;;;;;;;;;5037439;28;20531;-86
2024/01/11 12:36:40;;;;;;;50.27;26.47;;;;;;;;;;5038555;28;20536;-87
2024/01/11 12:39:45;;;;;;;48.07;26.10;;;;;;;;;;5004678;28;20544;-87
2024/01/11 12:42:49;;;;;;;49.30;28.00;;;;;;;;;;5026251;28;20595;-87
2024/01/11 12:45:54;;;;;;;44.40;26.50;;;;;;;;;;5014992;28;20620;-88
2024/01/11 12:48:59;;;;;;;51.30;27.87;;;;;;;;;;5026990;28;20547;-87
2024/01/11 12:52:04;;;;;;;55.43;28.27;;;;;;;;;;5038716;28;20539;-86
2024/01/11 12:55:22;;;;;;;58.07;29.07;;;;;;;;;;5037352;28;20633;-86
2024/01/11 12:58:26;;;;;;;51.90;27.73;;;;;;;;;;5026116;28;20563;-87
2024/01/11 13:01:30;;;;;;;53.97;28.63;;;;;;;;;;5036933;28;20547;-86
2024/01/11 13:04:34;;;;;;;61.47;28.60;;;;;;;;;;5025802;28;20626;-86
2024/01/11 13:07:38;;;;;;;54.13;26.60;;;;;;;;;;5025614;28;20543;-86
2024/01/11 13:10:42;;;;;;;57.83;28.87;;;;;;;;;;5024735;28;21091;-86
2024/01/11 13:13:47;;;;;;;57.60;27.67;;;;;;;;;;5004539;28;20539;-80
2024/01/11 13:16:51;;;;;;;66.27;29.40;;;;;;;;;;5040394;28;20551;-80
2024/01/11 13:19:55;;;;;;;57.27;28.93;;;;;;;;;;5026541;28;20540;-81
2024/01/11 13:23:24;;;;;;;46.20;26.37;;;;;;;;;;5037675;28;20595;-87
2024/01/11 13:26:28;;;;;;;44.47;25.87;;;;;;;;;;5024663;28;20535;-87
2024/01/11 13:29:32;;;;;;;47.03;27.10;;;;;;;;;;5025218;28;20626;-87
2024/01/11 13:32:36;;;;;;;47.10;27.37;;;;;;;;;;5038613;28;20181;-86
2024/01/11 13:35:43;;;;;;;55.67;28.57;;;;;;;;;;5025625;28;20639;-87
2024/01/11 13:38:47;;;;;;;49.60;28.67;;;;;;;;;;5036701;28;21096;-86
2024/01/11 13:41:51;;;;;;;53.97;29.23;;;;;;;;;;5014270;28;20543;-87
2024/01/11 13:44:56;;;;;;;50.30;28.63;;;;;;;;;;5037812;28;20623;-87
2024/01/11 13:48:00;;;;;;;48.00;26.67;;;;;;;;;;5037126;28;20543;-87
2024/01/11 13:51:04;;;;;;;45.57;28.03;;;;;;;;;;5025636;28;20550;-87
2024/01/11 13:54:09;;;;;;;51.03;29.00;;;;;;;;;;5036648;28;20626;-87
2024/01/11 13:57:13;;;;;;;46.73;26.60;;;;;;;;;;5024953;28;20566;-87
2024/01/11 14:00:18;;;;;;;52.90;27.13;;;;;;;;;;5012999;28;20563;-86
2024/01/11 14:03:23;;;;;;;49.80;28.23;;;;;;;;;;5037589;28;20602;-86
2024/01/11 14:06:27;;;;;;;49.03;27.97;;;;;;;;;;5024297;28;20539;-87
2024/01/11 14:09:32;;;;;;;52.13;27.77;;;;;;;;;;5035752;28;21103;-87
2024/01/11 14:12:36;;;;;;;55.00;27.73;;;;;;;;;;5024594;28;20567;-87
2024/01/11 14:15:41;;;;;;;52.37;27.60;;;;;;;;;;5036416;28;20983;-87
2024/01/11 14:18:45;;;;;;;51.90;27.20;;;;;;;;;;5024991;28;20551;-86
2024/01/11 14:21:50;;;;;;;56.00;28.47;;;;;;;;;;5012964;28;21095;-87
2024/01/11 14:24:55;;;;;;;49.00;27.77;;;;;;;;;;5024882;28;20643;-87
2024/01/11 14:27:59;;;;;;;53.63;28.80;;;;;;;;;;5036380;28;20575;-87
2024/01/11 14:31:05;;;;;;;52.07;28.33;;;;;;;;;;5036950;28;20539;-87
2024/01/11 14:34:13;;;;;;;47.57;28.27;;;;;;;;;;5013272;28;20637;-86
2024/01/11 14:37:17;;;;;;;48.93;27.47;;;;;;;;;;5024943;28;20901;-86
2024/01/11 14:40:21;;;;;;;53.53;29.33;;;;;;;;;;5012596;28;20547;-87
2024/01/11 14:43:25;;;;;;;49.20;26.97;;;;;;;;;;5035292;28;20602;-87
2024/01/11 14:46:30;;;;;;;51.63;27.63;;;;;;;;;;5034643;28;20551;-87
2024/01/11 14:49:34;;;;;;;59.53;30.10;;;;;;;;;;5024023;28;20898;-87
2024/01/11 14:52:42;;;;;;;49.30;27.07;;;;;;;;;;5035797;28;20547;-87
2024/01/11 14:55:46;;;;;;;51.03;29.03;;;;;;;;;;5023443;28;20702;-87
2024/01/11 14:58:50;;;;;;;50.80;28.63;;;;;;;;;;5024664;28;20552;-87
2024/01/11 15:01:54;;;;;;;53.57;28.43;;;;;;;;;;5035482;28;20550;-87
2024/01/11 15:04:59;;;;;;;52.87;28.00;;;;;;;;;;5023933;28;20614;-89
2024/01/11 15:08:04;;;;;;;61.93;29.13;;;;;;;;;;5023949;28;20555;-88
2024/01/11 15:11:08;;;;;;;53.57;28.43;;;;;;;;;;5023525;28;20543;-87
2024/01/11 15:14:13;;;;;;;47.53;27.07;;;;;;;;;;5024886;28;20622;-86
2024/01/11 15:17:19;;;;;;;54.40;27.97;;;;;;;;;;5026454;28;20559;-84
2024/01/11 15:20:23;;;;;;;50.70;27.97;;;;;;;;;;5036471;28;20547;-84
2024/01/11 15:23:27;;;;;;;50.77;27.27;;;;;;;;;;5023837;28;20622;-84
2024/01/11 15:26:32;;;;;;;47.13;26.53;;;;;;;;;;5034871;28;20551;-83
2024/01/11 15:29:38;;;;;;;56.10;29.83;;;;;;;;;;5023355;28;20543;-83
2024/01/11 15:32:43;;;;;;;47.20;27.20;;;;;;;;;;5034367;28;20539;-83
2024/01/11 15:35:48;;;;;;;48.53;27.60;;;;;;;;;;5037969;28;20653;-83
2024/01/11 15:38:54;;;;;;;49.80;27.73;;;;;;;;;;5038905;28;20571;-84
2024/01/11 15:42:00;;;;;;;49.13;28.07;;;;;;;;;;5026576;28;20546;-83
2024/01/11 15:45:05;;;;;;;45.20;27.03;;;;;;;;;;5026538;28;20614;-83
2024/01/11 15:48:09;;;;;;;50.90;27.23;;;;;;;;;;5039078;28;20546;-83
2024/01/11 15:51:13;;;;;;;51.50;29.90;;;;;;;;;;5027091;28;20547;-83
2024/01/11 15:54:20;;;;;;;51.10;27.83;;;;;;;;;;5026642;28;20610;-83
2024/01/11 15:57:24;;;;;;;48.60;27.57;;;;;;;;;;5039471;28;20586;-83
2024/01/11 16:00:28;;;;;;;49.77;28.80;;;;;;;;;;5031147;28;20566;-83
2024/01/11 16:03:33;;;;;;;54.70;28.27;;;;;;;;;;5043683;28;20595;-86
2024/01/11 16:06:37;;;;;;;50.50;27.07;;;;;;;;;;5030922;28;20555;-86
2024/01/11 16:09:44;;;;;;;51.57;28.07;;;;;;;;;;5019363;28;20552;-87
2024/01/11 16:12:48;;;;;;;55.30;28.33;;;;;;;;;;5028625;28;20566;-86
2024/01/11 16:15:55;;;;;;;53.20;29.23;;;;;;;;;;5043445;28;20614;-86
2024/01/11 16:19:00;;;;;;;53.00;29.00;;;;;;;;;;5042768;28;20550;-87
2024/01/11 16:22:05;;;;;;;55.17;28.33;;;;;;;;;;5030338;28;21079;-87
2024/01/11 16:25:09;;;;;;;54.70;28.43;;;;;;;;;;5030198;28;20606;-87
2024/01/11 16:28:13;;;;;;;52.50;27.43;;;;;;;;;;5031170;28;20563;-87
2024/01/11 16:31:18;;;;;;;55.13;28.17;;;;;;;;;;5019871;28;20551;-87
2024/01/11 16:34:22;;;;;;;53.97;30.23;;;;;;;;;;5042094;28;20769;-87
2024/01/11 16:37:26;;;;;;;56.77;28.43;;;;;;;;;;5042895;28;20558;-87
2024/01/11 16:40:30;;;;;;;55.70;27.43;;;;;;;;;;5030337;28;20627;-87
2024/01/11 16:43:35;;;;;;;53.43;28.87;;;;;;;;;;5044572;28;20999;-88
2024/01/11 16:46:39;;;;;;;51.63;26.67;;;;;;;;;;5033977;28;20550;-88
2024/01/11 16:49:43;;;;;;;52.67;26.23;;;;;;;;;;5033791;28;20547;-87
2024/01/11 16:52:48;;;;;;;56.63;28.37;;;;;;;;;;5033647;28;20544;-88
2024/01/11 16:55:52;;;;;;;47.00;26.10;;;;;;;;;;5035096;28;20680;-88
2024/01/11 16:58:57;;;;;;;50.30;27.83;;;;;;;;;;5046898;28;20987;-88
2024/01/11 17:02:01;;;;;;;57.80;27.57;;;;;;;;;;5034641;28;20546;-87
2024/01/11 17:05:05;;;;;;;50.57;28.37;;;;;;;;;;5023164;28;20625;-87
2024/01/11 17:08:09;;;;;;;54.17;28.13;;;;;;;;;;5022973;28;20561;-87
2024/01/11 17:11:15;;;;;;;50.43;28.07;;;;;;;;;;5022741;28;20551;-87
2024/01/11 17:14:19;;;;;;;49.63;27.03;;;;;;;;;;5044768;28;20618;-87
2024/01/11 17:17:23;;;;;;;51.70;28.50;;;;;;;;;;5022207;28;20550;-87
2024/01/11 17:20:29;;;;;;;55.17;29.33;;;;;;;;;;5044502;28;20547;-86
2024/01/11 17:23:33;;;;;;;62.50;31.63;;;;;;;;;;5021176;28;20606;-87
2024/01/11 17:26:37;;;;;;;58.67;30.77;;;;;;;;;;5044234;28;20558;-86
2024/01/11 17:29:42;;;;;;;59.27;29.83;;;;;;;;;;5033791;28;20562;-86
2024/01/11 17:32:47;;;;;;;57.10;30.20;;;;;;;;;;5032726;28;20551;-87
2024/01/11 17:35:51;;;;;;;57.97;29.00;;;;;;;;;;5044332;28;20669;-87
2024/01/11 17:38:55;;;;;;;64.60;30.67;;;;;;;;;;5031897;28;20554;-87
2024/01/11 17:42:00;;;;;;;63.97;29.90;;;;;;;;;;5044243;28;20924;-87
2024/01/11 17:45:04;;;;;;;53.10;28.70;;;;;;;;;;5031386;28;20661;-87
2024/01/11 17:48:08;;;;;;;60.80;30.13;;;;;;;;;;5042329;28;20543;-87
2024/01/11 17:51:13;;;;;;;56.60;30.00;;;;;;;;;;5042731;28;20547;-87
2024/01/11 17:54:17;;;;;;;60.07;29.63;;;;;;;;;;5031102;28;20968;-87